createdAt,value
2023-02-28T00:00:23.129Z,3.40
2023-02-28T00:02:50.679Z,3.60
2023-02-28T00:05:20.120Z,3.20
2023-02-28T00:07:47.896Z,2.92
2023-02-28T00:10:16.632Z,2.75
2023-02-28T00:12:44.001Z,3.08
2023-02-28T00:15:12.768Z,2.88
2023-02-28T00:17:40.180Z,2.83
2023-02-28T00:20:09.237Z,3.10
2023-02-28T00:22:36.683Z,3.50
2023-02-28T00:25:04.505Z,2.30
2023-02-28T00:27:31.893Z,2.47
2023-02-28T00:29:59.264Z,2.58
2023-02-28T00:32:28.013Z,2.80
2023-02-28T00:34:55.426Z,2.70
2023-02-28T00:37:22.809Z,2.88
2023-02-28T00:39:50.173Z,2.55
2023-02-28T00:42:17.585Z,2.58
2023-02-28T00:44:44.955Z,2.20
2023-02-28T00:47:12.334Z,2.38
2023-02-28T00:49:41.224Z,2.38
2023-02-28T00:52:08.621Z,2.38
2023-02-28T00:54:35.986Z,2.28
2023-02-28T00:57:03.383Z,2.50
2023-02-28T00:59:30.752Z,2.45
2023-02-28T01:01:58.168Z,2.42
2023-02-28T01:04:25.610Z,2.03
2023-02-28T01:06:54.316Z,2.90
2023-02-28T01:09:21.692Z,2.60
2023-02-28T01:11:49.070Z,2.10
2023-02-28T01:14:17.275Z,2.88
2023-02-28T01:16:44.755Z,2.33
2023-02-28T01:19:14.984Z,2.75
2023-02-28T01:24:11.086Z,2.65
2023-02-28T01:26:38.454Z,3.20
2023-02-28T01:29:05.859Z,3.05
2023-02-28T01:31:33.324Z,2.55
2023-02-28T01:34:00.901Z,2.35
2023-02-28T01:36:28.364Z,2.83
2023-02-28T01:38:55.841Z,2.28
2023-02-28T01:41:25.623Z,1.98
2023-02-28T01:44:03.945Z,2.97
2023-02-28T01:46:31.956Z,2.10
2023-02-28T01:49:02.742Z,1.92
2023-02-28T01:51:31.881Z,2.83
2023-02-28T01:54:01.271Z,2.08
2023-02-28T01:56:31.160Z,2.42
2023-02-28T01:58:58.593Z,1.80
2023-02-28T02:01:26.384Z,2.05
2023-02-28T02:03:56.190Z,1.60
2023-02-28T02:06:24.242Z,1.80
2023-02-28T02:08:51.634Z,1.45
2023-02-28T02:11:20.199Z,1.60
2023-02-28T02:14:00.619Z,1.63
2023-02-28T02:16:36.503Z,1.45
2023-02-28T02:19:09.577Z,1.60
2023-02-28T02:21:56.852Z,1.70
2023-02-28T02:24:42.674Z,1.48
2023-02-28T02:27:19.981Z,2.67
2023-02-28T02:30:20.596Z,1.60
2023-02-28T02:33:15.930Z,1.42
2023-02-28T02:35:47.390Z,2.00
2023-02-28T02:38:18.112Z,1.38
2023-02-28T02:40:48.786Z,1.58
2023-02-28T02:43:18.251Z,1.40
2023-02-28T02:45:47.021Z,1.80
2023-02-28T02:48:16.132Z,1.63
2023-02-28T02:50:46.311Z,1.23
2023-02-28T02:55:42.403Z,1.90
2023-02-28T02:58:11.362Z,1.30
2023-02-28T03:00:40.303Z,1.52
2023-02-28T03:03:07.744Z,1.67
2023-02-28T03:05:37.456Z,1.20
2023-02-28T03:08:07.304Z,1.73
2023-02-28T03:10:37.251Z,1.63
2023-02-28T03:13:18.035Z,1.65
2023-02-28T03:15:52.888Z,1.30
2023-02-28T03:18:23.205Z,1.40
2023-02-28T03:20:52.463Z,1.42
2023-02-28T03:23:21.894Z,1.80
2023-02-28T03:25:56.803Z,1.30
2023-02-28T03:28:29.637Z,1.20
2023-02-28T03:30:59.640Z,1.38
2023-02-28T03:33:29.073Z,2.10
2023-02-28T03:36:00.145Z,1.80
2023-02-28T03:38:29.976Z,1.92
2023-02-28T03:41:00.506Z,1.63
2023-02-28T03:43:30.095Z,1.80
2023-02-28T03:45:57.527Z,1.48
2023-02-28T03:48:26.955Z,1.83
2023-02-28T03:50:55.595Z,1.50
2023-02-28T03:53:25.053Z,1.40
2023-02-28T03:55:56.237Z,2.05
2023-02-28T03:58:26.706Z,2.35
2023-02-28T04:00:56.944Z,1.23
2023-02-28T04:03:24.350Z,1.27
2023-02-28T04:05:53.687Z,1.77
2023-02-28T04:08:21.325Z,1.63
2023-02-28T04:10:51.838Z,1.58
2023-02-28T04:13:20.532Z,1.20
2023-02-28T04:15:47.942Z,1.50
2023-02-28T04:18:15.340Z,1.88
2023-02-28T04:20:42.746Z,1.52
2023-02-28T04:23:10.159Z,1.30
2023-02-28T04:25:37.553Z,1.45
2023-02-28T04:28:05.142Z,1.50
2023-02-28T04:30:33.971Z,1.60
2023-02-28T04:33:01.705Z,1.73
2023-02-28T04:35:29.176Z,2.08
2023-02-28T04:37:56.614Z,1.83
2023-02-28T04:40:23.993Z,2.00
2023-02-28T04:42:51.376Z,1.88
2023-02-28T04:45:19.119Z,2.22
2023-02-28T04:47:47.821Z,2.95
2023-02-28T04:50:15.353Z,2.08
2023-02-28T04:52:42.767Z,1.70
2023-02-28T04:55:11.226Z,2.10
2023-02-28T04:57:38.956Z,1.55
2023-02-28T05:00:12.367Z,1.83
2023-02-28T05:02:40.290Z,1.60
2023-02-28T05:05:09.300Z,2.55
2023-02-28T05:07:36.836Z,1.55
2023-02-28T05:10:06.388Z,1.50
2023-02-28T05:12:33.871Z,2.25
2023-02-28T05:15:02.791Z,1.83
2023-02-28T05:17:30.193Z,2.05
2023-02-28T05:20:09.831Z,1.75
2023-02-28T05:22:43.682Z,1.30
2023-02-28T05:25:12.280Z,2.45
2023-02-28T05:27:39.680Z,1.98
2023-02-28T05:30:11.327Z,2.35
2023-02-28T05:32:38.841Z,3.40
2023-02-28T05:35:07.086Z,2.85
2023-02-28T05:37:34.472Z,3.58
2023-02-28T05:40:06.881Z,3.67
2023-02-28T05:42:34.361Z,3.88
2023-02-28T05:45:01.731Z,4.38
2023-02-28T05:47:29.116Z,4.00
2023-02-28T05:49:56.521Z,2.88
2023-02-28T05:52:24.296Z,3.67
2023-02-28T05:54:51.697Z,3.50
2023-02-28T05:57:24.609Z,3.47
2023-02-28T05:59:52.188Z,4.55
2023-02-28T06:02:19.823Z,3.70
2023-02-28T06:04:47.291Z,3.88
2023-02-28T06:07:14.671Z,2.95
2023-02-28T06:09:42.539Z,3.65
2023-02-28T06:12:10.866Z,3.67
2023-02-28T06:14:39.566Z,3.70
2023-02-28T06:17:06.976Z,3.95
2023-02-28T06:19:34.662Z,3.83
2023-02-28T06:22:02.062Z,3.35
2023-02-28T06:24:33.261Z,3.03
2023-02-28T06:27:05.703Z,3.20
2023-02-28T06:29:33.193Z,2.67
2023-02-28T06:32:01.934Z,2.80
2023-02-28T06:34:29.364Z,4.00
2023-02-28T06:36:56.785Z,5.05
2023-02-28T06:39:24.191Z,4.85
2023-02-28T06:41:55.646Z,3.00
2023-02-28T06:44:23.980Z,5.03
2023-02-28T06:46:51.364Z,5.15
2023-02-28T06:49:20.067Z,9.35
2023-02-28T06:51:47.442Z,4.97
2023-02-28T06:54:14.897Z,6.03
2023-02-28T06:56:42.280Z,3.03
2023-02-28T06:59:09.682Z,5.07
2023-02-28T07:01:37.095Z,6.43
2023-02-28T07:04:04.511Z,3.80
2023-02-28T07:06:33.234Z,6.07
2023-02-28T07:09:00.893Z,3.47
2023-02-28T07:11:29.190Z,4.60
2023-02-28T07:13:56.855Z,7.35
2023-02-28T07:16:24.537Z,6.95
2023-02-28T07:18:53.696Z,3.97
2023-02-28T07:21:21.146Z,6.70
2023-02-28T07:23:50.078Z,5.57
2023-02-28T07:26:18.691Z,9.35
2023-02-28T07:28:46.640Z,5.10
2023-02-28T07:31:14.815Z,5.63
2023-02-28T07:33:42.595Z,4.75
2023-02-28T07:36:14.907Z,3.88
2023-02-28T07:38:42.597Z,4.85
2023-02-28T07:41:11.301Z,5.10
2023-02-28T07:43:38.669Z,5.65
2023-02-28T07:46:06.536Z,4.93
2023-02-28T07:48:33.989Z,6.07
2023-02-28T07:51:01.602Z,6.20
2023-02-28T07:53:29.176Z,9.80
2023-02-28T07:55:57.366Z,6.68
2023-02-28T07:58:26.417Z,9.10
2023-02-28T08:00:53.839Z,6.85
2023-02-28T08:03:21.907Z,10.27
2023-02-28T08:05:49.551Z,7.60
2023-02-28T08:08:17.593Z,7.93
2023-02-28T08:10:45.240Z,13.20
2023-02-28T08:13:12.638Z,13.30
2023-02-28T08:15:42.349Z,19.02
2023-02-28T08:18:09.721Z,14.23
2023-02-28T08:20:37.088Z,14.35
2023-02-28T08:23:04.524Z,15.20
2023-02-28T08:25:31.903Z,13.20
2023-02-28T08:27:59.330Z,11.90
2023-02-28T08:30:26.701Z,30.77
2023-02-28T08:32:56.171Z,32.17
2023-02-28T08:35:23.863Z,22.75
2023-02-28T08:37:51.299Z,30.90
2023-02-28T08:40:19.857Z,121.35
2023-02-28T08:42:47.325Z,289.67
2023-02-28T08:45:14.734Z,233.32
2023-02-28T08:47:42.392Z,251.10
2023-02-28T08:50:12.092Z,218.07
2023-02-28T08:52:39.653Z,213.50
2023-02-28T08:55:07.658Z,179.80
2023-02-28T08:57:35.025Z,169.18
2023-02-28T09:00:05.191Z,154.32
2023-02-28T09:04:59.911Z,142.30
2023-02-28T09:07:28.629Z,130.98
2023-02-28T09:09:56.128Z,131.43
2023-02-28T09:12:23.663Z,131.57
2023-02-28T09:14:51.052Z,133.45
2023-02-28T09:17:18.457Z,125.00
2023-02-28T09:19:46.154Z,129.93
2023-02-28T09:22:13.554Z,116.57
2023-02-28T09:24:42.430Z,96.18
2023-02-28T09:27:10.156Z,82.15
2023-02-28T09:29:38.600Z,81.32
2023-02-28T09:32:06.680Z,78.28
2023-02-28T09:34:34.199Z,76.68
2023-02-28T09:37:01.649Z,69.05
2023-02-28T09:39:29.671Z,61.38
2023-02-28T09:41:58.686Z,78.22
2023-02-28T09:44:30.185Z,56.88
2023-02-28T09:47:00.206Z,46.45
2023-02-28T09:49:31.058Z,53.53
2023-02-28T09:51:59.661Z,41.50
2023-02-28T09:54:28.718Z,67.30
2023-02-28T09:56:59.968Z,44.03
2023-02-28T09:59:44.087Z,41.60
2023-02-28T10:02:19.354Z,38.63
2023-02-28T10:04:52.388Z,34.35
2023-02-28T10:07:26.269Z,26.98
2023-02-28T10:09:55.002Z,27.33
2023-02-28T10:12:23.692Z,25.80
2023-02-28T10:14:52.688Z,27.58
2023-02-28T10:17:21.760Z,27.40
2023-02-28T10:19:53.222Z,24.67
2023-02-28T10:22:22.389Z,21.08
2023-02-28T10:24:52.360Z,20.00
2023-02-28T10:27:20.616Z,20.17
2023-02-28T10:29:51.229Z,21.42
2023-02-28T10:32:19.414Z,18.77
2023-02-28T10:34:46.913Z,17.17
2023-02-28T10:37:14.292Z,18.25
2023-02-28T10:39:42.952Z,17.20
2023-02-28T10:42:26.428Z,17.27
2023-02-28T10:45:09.400Z,16.02
2023-02-28T10:47:38.162Z,15.07
2023-02-28T10:50:05.899Z,13.32
2023-02-28T10:52:38.315Z,13.00
2023-02-28T10:55:22.561Z,16.30
2023-02-28T10:57:50.231Z,13.30
2023-02-28T11:00:20.728Z,11.45
2023-02-28T11:02:48.216Z,10.63
2023-02-28T11:05:28.539Z,11.23
2023-02-28T11:07:56.248Z,11.63
2023-02-28T11:10:26.239Z,11.90
2023-02-28T11:12:57.219Z,9.50
2023-02-28T11:15:27.735Z,10.80
2023-02-28T11:17:55.844Z,8.07
2023-02-28T11:20:24.213Z,8.98
2023-02-28T11:22:51.607Z,10.32
2023-02-28T11:25:26.873Z,10.30
2023-02-28T11:27:54.672Z,7.00
2023-02-28T11:30:31.603Z,9.10
2023-02-28T11:32:58.995Z,7.70
2023-02-28T11:35:29.343Z,6.85
2023-02-28T11:37:56.796Z,7.78
2023-02-28T11:40:30.898Z,6.53
2023-02-28T11:43:03.617Z,6.13
2023-02-28T11:45:43.692Z,9.15
2023-02-28T11:48:16.240Z,7.45
2023-02-28T11:50:50.648Z,5.82
2023-02-28T11:53:22.654Z,6.45
2023-02-28T11:55:51.205Z,5.80
2023-02-28T11:58:30.763Z,5.93
2023-02-28T12:01:23.717Z,5.93
2023-02-28T12:03:58.450Z,6.07
2023-02-28T12:06:27.497Z,5.30
2023-02-28T12:09:20.521Z,5.55
2023-02-28T12:11:53.906Z,4.97
2023-02-28T12:14:32.395Z,6.28
2023-02-28T12:17:05.612Z,4.57
2023-02-28T12:19:34.880Z,4.22
2023-02-28T12:22:13.056Z,3.93
2023-02-28T12:24:52.810Z,4.45
2023-02-28T12:27:21.547Z,6.80
2023-02-28T12:29:51.359Z,5.20
2023-02-28T12:32:22.512Z,5.15
2023-02-28T12:34:51.173Z,3.45
2023-02-28T12:37:21.563Z,3.50
2023-02-28T12:39:51.157Z,4.15
2023-02-28T12:42:21.132Z,3.92
2023-02-28T12:44:51.012Z,3.88
2023-02-28T12:47:20.039Z,3.67
2023-02-28T12:49:48.553Z,2.65
2023-02-28T12:52:17.412Z,3.22
2023-02-28T12:54:48.459Z,3.33
2023-02-28T12:57:17.914Z,3.60
2023-02-28T12:59:48.269Z,3.58
2023-02-28T13:02:29.168Z,3.38
2023-02-28T13:05:12.139Z,2.55
2023-02-28T13:07:55.593Z,2.83
2023-02-28T13:10:23.164Z,3.42
2023-02-28T13:12:51.279Z,2.53
2023-02-28T13:15:22.430Z,3.22
2023-02-28T13:17:52.272Z,4.10
2023-02-28T13:20:20.754Z,4.20
2023-02-28T13:22:48.840Z,2.65
2023-02-28T13:25:47.932Z,2.72
2023-02-28T13:28:15.657Z,2.92
2023-02-28T13:31:06.407Z,3.17
2023-02-28T13:33:35.262Z,2.30
2023-02-28T13:36:09.384Z,2.63
2023-02-28T13:38:38.842Z,2.40
2023-02-28T13:41:49.202Z,3.15
2023-02-28T13:44:18.674Z,2.50
2023-02-28T13:47:25.464Z,3.25
2023-02-28T13:49:54.538Z,3.65
2023-02-28T13:52:23.777Z,2.83
2023-02-28T13:55:12.773Z,2.23
2023-02-28T13:57:46.611Z,4.47
2023-02-28T14:00:22.630Z,2.75
2023-02-28T14:03:06.146Z,2.60
2023-02-28T14:05:35.084Z,2.80
2023-02-28T14:08:07.493Z,2.03
2023-02-28T14:10:37.024Z,2.03
2023-02-28T14:13:13.420Z,2.70
2023-02-28T14:15:43.115Z,2.33
2023-02-28T14:18:18.132Z,2.17
2023-02-28T14:20:47.293Z,2.10
2023-02-28T14:23:18.553Z,2.55
2023-02-28T14:25:47.620Z,2.33
2023-02-28T14:28:18.540Z,3.77
2023-02-28T14:30:58.501Z,2.03
2023-02-28T14:33:29.095Z,3.92
2023-02-28T14:36:03.821Z,2.17
2023-02-28T14:38:33.072Z,2.22
2023-02-28T14:41:02.034Z,3.03
2023-02-28T14:43:30.075Z,2.00
2023-02-28T14:45:58.462Z,2.75
2023-02-28T14:48:26.214Z,2.03
2023-02-28T14:50:55.012Z,2.67
2023-02-28T14:53:25.418Z,1.70
2023-02-28T14:55:53.715Z,2.72
2023-02-28T14:58:24.727Z,2.28
2023-02-28T15:00:53.658Z,2.13
2023-02-28T15:03:22.229Z,3.92
2023-02-28T15:05:53.652Z,3.13
2023-02-28T15:08:21.800Z,2.42
2023-02-28T15:10:55.157Z,2.97
2023-02-28T15:13:22.551Z,2.15
2023-02-28T15:16:01.879Z,2.67
2023-02-28T15:18:33.262Z,3.00
2023-02-28T15:21:01.185Z,2.40
2023-02-28T15:23:28.562Z,2.28
2023-02-28T15:25:57.279Z,2.65
2023-02-28T15:28:24.771Z,1.75
2023-02-28T15:30:53.916Z,1.73
2023-02-28T15:33:22.119Z,2.30
2023-02-28T15:35:49.811Z,2.38
2023-02-28T15:38:19.331Z,1.60
2023-02-28T15:40:54.342Z,1.70
2023-02-28T15:43:28.424Z,1.50
2023-02-28T15:45:58.367Z,2.05
2023-02-28T15:48:27.099Z,1.90
2023-02-28T15:50:55.339Z,1.77
2023-02-28T15:53:24.596Z,2.17
2023-02-28T15:56:01.198Z,1.77
2023-02-28T15:58:29.911Z,2.20
2023-02-28T16:01:07.620Z,3.05
2023-02-28T16:03:40.636Z,2.63
2023-02-28T16:06:21.198Z,1.67
2023-02-28T16:08:49.769Z,2.03
2023-02-28T16:11:17.208Z,1.75
2023-02-28T16:13:45.904Z,1.48
2023-02-28T16:16:17.594Z,2.38
2023-02-28T16:18:45.090Z,2.65
2023-02-28T16:21:12.474Z,3.38
2023-02-28T16:23:39.863Z,1.92
2023-02-28T16:26:07.537Z,2.65
2023-02-28T16:28:35.652Z,2.05
2023-02-28T16:31:05.610Z,3.15
2023-02-28T16:33:33.559Z,2.00
2023-02-28T16:36:01.072Z,1.60
2023-02-28T16:38:28.538Z,1.63
2023-02-28T16:40:57.796Z,2.10
2023-02-28T16:43:26.235Z,1.90
2023-02-28T16:45:56.614Z,2.20
2023-02-28T16:48:25.857Z,2.75
2023-02-28T16:50:53.293Z,1.80
2023-02-28T16:53:20.681Z,2.35
2023-02-28T16:55:48.344Z,1.80
2023-02-28T16:58:16.524Z,1.98
2023-02-28T17:00:44.423Z,1.77
2023-02-28T17:03:27.177Z,2.08
2023-02-28T17:06:00.982Z,2.85
2023-02-28T17:08:30.176Z,2.40
2023-02-28T17:10:57.719Z,2.73
2023-02-28T17:13:25.268Z,2.28
2023-02-28T17:15:52.724Z,2.13
2023-02-28T17:18:20.668Z,2.38
2023-02-28T17:20:48.176Z,2.78
2023-02-28T17:23:16.890Z,3.75
2023-02-28T17:25:57.541Z,5.90
2023-02-28T17:28:25.971Z,2.95
2023-02-28T17:30:53.466Z,3.53
2023-02-28T17:33:20.928Z,3.38
2023-02-28T17:35:48.366Z,3.00
2023-02-28T17:38:18.719Z,2.83
2023-02-28T17:40:46.148Z,3.40
2023-02-28T17:43:13.599Z,6.18
2023-02-28T17:45:40.990Z,3.88
2023-02-28T17:48:08.484Z,2.90
2023-02-28T17:50:35.959Z,3.60
2023-02-28T17:53:03.360Z,3.40
2023-02-28T17:55:32.088Z,3.45
2023-02-28T17:57:59.503Z,3.03
2023-02-28T18:00:27.338Z,3.22
2023-02-28T18:02:55.115Z,4.20
2023-02-28T18:05:22.532Z,4.88
2023-02-28T18:07:49.912Z,3.92
2023-02-28T18:10:20.200Z,3.25
2023-02-28T18:12:49.427Z,2.80
2023-02-28T18:15:17.592Z,3.00
2023-02-28T18:17:44.982Z,3.60
2023-02-28T18:20:12.511Z,3.72
2023-02-28T18:22:40.102Z,2.90
2023-02-28T18:25:09.036Z,2.95
2023-02-28T18:27:36.518Z,4.03
2023-02-28T18:30:06.353Z,2.65
2023-02-28T18:32:33.856Z,3.40
2023-02-28T18:35:01.253Z,2.70
2023-02-28T18:37:28.640Z,2.63
2023-02-28T18:39:56.033Z,3.20
2023-02-28T18:42:23.415Z,3.35
2023-02-28T18:44:50.784Z,3.95
2023-02-28T18:47:19.661Z,4.03
2023-02-28T18:49:47.357Z,3.65
2023-02-28T18:52:14.738Z,2.80
2023-02-28T18:54:42.125Z,3.53
2023-02-28T18:57:09.512Z,2.55
2023-02-28T18:59:36.939Z,2.63
2023-02-28T19:02:04.332Z,2.67
2023-02-28T19:04:33.178Z,2.85
2023-02-28T19:07:00.554Z,5.70
2023-02-28T19:09:28.292Z,3.03
2023-02-28T19:11:55.756Z,3.13
2023-02-28T19:14:23.145Z,2.33
2023-02-28T19:16:51.845Z,4.25
2023-02-28T19:19:19.218Z,3.22
2023-02-28T19:21:47.912Z,2.88
2023-02-28T19:24:15.288Z,3.20
2023-02-28T19:26:42.654Z,3.47
2023-02-28T19:29:10.135Z,3.20
2023-02-28T19:31:38.118Z,3.70
2023-02-28T19:34:05.630Z,3.67
2023-02-28T19:36:34.135Z,3.67
2023-02-28T19:39:02.956Z,3.28
2023-02-28T19:41:30.604Z,3.47
2023-02-28T19:43:58.248Z,3.38
2023-02-28T19:46:26.117Z,3.38
2023-02-28T19:51:13.978Z,3.00
2023-02-28T19:53:42.033Z,2.50
2023-02-28T19:56:10.797Z,4.93
2023-02-28T19:58:38.316Z,3.20
2023-02-28T20:01:09.776Z,3.67
2023-02-28T20:03:37.185Z,3.90
2023-02-28T20:06:07.452Z,3.70
2023-02-28T20:08:34.841Z,3.92
2023-02-28T20:11:05.551Z,3.00
2023-02-28T20:13:34.424Z,3.35
2023-02-28T20:16:02.411Z,2.70
2023-02-28T20:18:29.816Z,3.00
2023-02-28T20:20:57.387Z,2.70
2023-02-28T20:23:24.801Z,2.40
2023-02-28T20:25:52.259Z,3.25
2023-02-28T20:28:19.703Z,2.50
2023-02-28T20:30:49.049Z,2.88
2023-02-28T20:33:16.727Z,2.65
2023-02-28T20:35:44.295Z,2.97
2023-02-28T20:38:11.916Z,3.45
2023-02-28T20:40:39.331Z,2.88
2023-02-28T20:43:06.731Z,3.13
2023-02-28T20:45:35.545Z,3.78
2023-02-28T20:48:04.326Z,3.45
2023-02-28T20:50:31.779Z,3.85
2023-02-28T20:52:59.151Z,3.22
2023-02-28T20:55:26.639Z,3.33
2023-02-28T20:57:54.300Z,3.22
2023-02-28T21:00:22.533Z,3.65
2023-02-28T21:02:49.986Z,3.92
2023-02-28T21:05:18.812Z,2.95
2023-02-28T21:07:46.215Z,3.25
2023-02-28T21:10:13.568Z,3.50
2023-02-28T21:12:40.956Z,3.15
2023-02-28T21:15:09.789Z,3.05
2023-02-28T21:17:37.175Z,4.30
2023-02-28T21:20:05.373Z,3.00
2023-02-28T21:22:34.111Z,3.80
2023-02-28T21:25:01.501Z,2.95
2023-02-28T21:27:28.926Z,3.15
2023-02-28T21:29:56.308Z,2.60
2023-02-28T21:32:23.697Z,3.08
2023-02-28T21:34:52.290Z,2.70
2023-02-28T21:37:20.216Z,2.88
2023-02-28T21:39:48.931Z,2.97
2023-02-28T21:42:16.444Z,3.38
2023-02-28T21:44:44.061Z,3.72
2023-02-28T21:47:11.994Z,2.60
2023-02-28T21:49:39.392Z,3.20
2023-02-28T21:52:06.792Z,3.80
2023-02-28T21:54:34.599Z,2.83
2023-02-28T21:57:03.344Z,4.07
2023-02-28T21:59:30.987Z,3.15
2023-02-28T22:01:58.380Z,3.22
2023-02-28T22:04:25.835Z,2.92
2023-02-28T22:06:53.782Z,3.63
2023-02-28T22:09:21.467Z,3.10
2023-02-28T22:11:48.927Z,3.33
2023-02-28T22:14:17.635Z,3.08
2023-02-28T22:16:51.972Z,2.80
2023-02-28T22:19:20.270Z,2.53
2023-02-28T22:21:47.836Z,3.38
2023-02-28T22:24:17.401Z,2.83
2023-02-28T22:26:44.838Z,2.95
2023-02-28T22:29:12.229Z,2.70
2023-02-28T22:31:40.952Z,2.95
2023-02-28T22:34:09.397Z,3.05
2023-02-28T22:36:36.831Z,3.15
2023-02-28T22:39:04.527Z,3.60
2023-02-28T22:41:31.985Z,2.72
2023-02-28T22:44:00.276Z,3.35
2023-02-28T22:46:28.500Z,3.20
2023-02-28T22:48:58.516Z,3.40
2023-02-28T22:51:26.207Z,2.80
2023-02-28T22:53:54.230Z,3.53
2023-02-28T22:56:23.488Z,2.70
2023-02-28T22:58:51.268Z,3.80
2023-02-28T23:01:18.748Z,2.78
2023-02-28T23:03:46.953Z,2.95
2023-02-28T23:06:16.915Z,3.00
2023-02-28T23:08:44.326Z,4.15
2023-02-28T23:11:11.743Z,2.55
2023-02-28T23:13:39.181Z,2.72
2023-02-28T23:16:07.388Z,3.55
2023-02-28T23:18:34.911Z,3.17
2023-02-28T23:21:02.286Z,3.17
2023-02-28T23:23:31.062Z,2.80
2023-02-28T23:25:58.448Z,3.38
2023-02-28T23:28:25.833Z,2.60
2023-02-28T23:30:53.215Z,2.67
2023-02-28T23:33:20.569Z,2.95
2023-02-28T23:35:48.006Z,3.70
2023-02-28T23:38:15.426Z,3.33
2023-02-28T23:40:44.131Z,4.07
2023-02-28T23:43:12.130Z,3.25
2023-02-28T23:45:40.659Z,3.28
2023-02-28T23:48:08.171Z,5.05
2023-02-28T23:50:35.547Z,2.70
2023-02-28T23:53:02.919Z,3.25
2023-02-28T23:55:30.502Z,2.63
2023-02-28T23:57:59.228Z,3.63
